Terminal Aerodrome Forecast
Issued by NWS Corpus Christi, TX

Home | Current Version | Previous Version | Text Only | Print | Product List | Glossary On
Versions: 1 2 3 4 5 6 7 8 9 10 11 12 13 14 15 16 17 18 19 20 21 22
000
FTUS44 KCRP 220527
TAFCRP
TAF
KCRP 220527Z 2206/2306 04007KT P6SM VCSH SCT007 BKN015
      TEMPO 2206/2208 5SM -SHRA BR BKN007 BKN015
     FM220900 05006KT P6SM VCSH BKN015
      TEMPO 2210/2214 4SM TSRA BR BKN015CB
     FM221600 12014KT P6SM VCTS BKN030CB
     FM230000 12012KT P6SM SCT015=

USA.gov is the U.S. government's official web portal to all federal, state and local government web resources and services.